This is the latest recevied weather packets stored in our database for station/object KE8GJZ-2. If no packets are shown the sender has not sent any weather packets the latest 10 day(s).
| Time | Temp. | Humidity | Pressure | Rain* | Wind** | Luminosity | Snow |
|---|---|---|---|---|---|---|---|
| 1778090441 | 12.22° C | 45% | 1013.2 hPa | 0 mm | - | 350 W/m² | - |
| 1778090137 | 11.67° C | 45% | 1013.1 hPa | 0 mm | - | 818 W/m² | - |
| 1778089834 | 11.67° C | 52% | 1013.2 hPa | 0 mm | - | 417 W/m² | - |
| 1778089533 | 12.22° C | 48% | 1013.1 hPa | 0 mm | - | 762 W/m² | - |
| 1778089228 | 11.67° C | 47% | 1013 hPa | 0 mm | - | 636 W/m² | - |
| 1778088926 | 12.22° C | 44% | 1013.1 hPa | 0 mm | - | 375 W/m² | - |
| 1778088623 | 12.22° C | 44% | 1012.9 hPa | 0 mm | - | 891 W/m² | - |
| 1778088320 | 11.67° C | 48% | 1013.1 hPa | 0 mm | - | 589 W/m² | - |
| 1778088016 | 11.11° C | 47% | 1013.1 hPa | 0 mm | - | 302 W/m² | - |
| 1778087714 | 11.11° C | 46% | 1013.1 hPa | 0 mm | - | 360 W/m² | - |
| 1778087411 | 11.67° C | 47% | 1013.1 hPa | 0 mm | - | 701 W/m² | - |
| 1778087108 | 11.11° C | 45% | 1013.4 hPa | 0 mm | - | 295 W/m² | - |
| 1778086800 | 11.11° C | 46% | 1013.2 hPa | 0 mm | - | 345 W/m² | - |
| 1778086499 | 11.11° C | 45% | 1013.4 hPa | 0 mm | - | 513 W/m² | - |
| 1778086194 | 11.67° C | 45% | 1013.4 hPa | 0 mm | - | 390 W/m² | - |
| 1778085891 | 11.11° C | 45% | 1013.4 hPa | 0 mm | - | 498 W/m² | - |
| 1778085589 | 11.11° C | 44% | 1013.3 hPa | 0 mm | - | 285 W/m² | - |
| 1778085284 | 11.11° C | 44% | 1013.4 hPa | 0 mm | - | 273 W/m² | - |
| 1778084979 | 11.11° C | 44% | 1013.4 hPa | 0 mm | - | 272 W/m² | - |
| 1778084676 | 10.56° C | 52% | 1013.2 hPa | 0 mm | - | 448 W/m² | - |
| 1778084368 | 11.67° C | 45% | 1013.4 hPa | 0 mm | - | 797 W/m² | - |
| 1778084066 | 11.11° C | 48% | 1013.5 hPa | 0 mm | - | 713 W/m² | - |
| 1778083763 | 11.67° C | 44% | 1013.5 hPa | 0 mm | - | 369 W/m² | - |
| 1778083460 | 11.11° C | 47% | 1013.4 hPa | 0 mm | - | 459 W/m² | - |
| 1778083158 | 10.56° C | 47% | 1013.3 hPa | 0 mm | - | 462 W/m² | - |
* Rain latest hour (hover to see other rain measurements)
** Current wind speed in m/s (hover to see current wind gust speed)